Allandale, Florida
Current Conditions -  °F | °C
As of 2:53 PM on Sunday 25 Jan 2015 (Local Time) from KDAB Reporting Station
Broken Clouds Broken Clouds  
Wind Chill: 18°   Ceiling: 25000
Heat Index: 18°   Visibility: 10mi
Dew Point: -1°   Wind: 9mph
Humidity: 28%   Direction: 230°SW
Pressure: 29.98"   Gusts: NA
Location:  29.1486°N, 81.0301°W
Report Text: KDAB 251953Z 23008KT 10SM BKN250 18/M01 A2998 RMK AO2 SLP153 T01781011
Loading
Personal Weather Stations






























Interactive Weather Map New forecast layout! Learn more

10-Day Weather Forecast

Advertisements
Track Severe Weather on mobile